Time;durP1;ratioP1;P1;durP2;ratioP2;P2;SDS_P1;SDS_P2;PMS_P1;PMS_P2;Temp;Humidity;BMP_temperature;BMP_pressure;BME280_temperature;BME280_humidity;BME280_pressure;Samples;Min_cycle;Max_cycle;Signal;HPM_P1;HPM_P2
2022/05/03 00:00:11;;;;;;;4.87;2.67;;;;;;;12.42;43.91;99316.16;1774090;80;20982;-44
2022/05/03 00:02:58;;;;;;;5.37;2.70;;;;;;;12.44;43.90;99316.55;1774219;80;20929;-45
2022/05/03 00:05:45;;;;;;;5.25;2.40;;;;;;;12.45;43.78;99315.97;1779223;80;20993;-45
2022/05/03 00:08:41;;;;;;;5.70;2.75;;;;;;;12.46;43.79;99316.97;1782702;80;21017;-45
2022/05/03 00:11:31;;;;;;;5.80;2.55;;;;;;;12.48;44.01;99306.52;1782120;80;21106;-44
2022/05/03 00:14:12;;;;;;;5.62;2.60;;;;;;;12.48;44.49;99320.11;1782867;80;21013;-44
2022/05/03 00:16:40;;;;;;;5.20;2.72;;;;;;;12.45;43.75;99314.03;1756447;80;21479;-44
2022/05/03 00:19:07;;;;;;;5.22;2.80;;;;;;;12.43;43.37;99308.20;1782758;80;21095;-45
2022/05/03 00:21:35;;;;;;;7.50;2.92;;;;;;;12.45;43.44;99309.95;1782836;80;21040;-43
2022/05/03 00:24:02;;;;;;;6.90;3.27;;;;;;;12.48;43.15;99309.23;1783115;80;21080;-43
2022/05/03 00:26:31;;;;;;;5.20;2.58;;;;;;;12.50;43.31;99308.27;1782941;80;21803;-43
2022/05/03 00:28:58;;;;;;;4.15;2.72;;;;;;;12.54;43.43;99303.64;1754822;80;20949;-43
2022/05/03 00:31:26;;;;;;;4.22;2.75;;;;;;;12.61;43.27;99301.58;1783053;80;21027;-43
2022/05/03 00:33:57;;;;;;;8.38;3.15;;;;;;;12.64;43.03;99302.96;1783039;80;21040;-43
2022/05/03 00:36:24;;;;;;;5.95;3.08;;;;;;;12.67;43.13;99310.19;1782673;80;21139;-42
2022/05/03 00:38:51;;;;;;;3.87;2.40;;;;;;;12.67;43.42;99307.46;1782541;80;20982;-43
2022/05/03 00:41:38;;;;;;;5.87;2.98;;;;;;;12.69;43.52;99298.33;1782625;80;21012;-43
2022/05/03 00:47:16;;;;;;;7.42;2.62;;;;;;;12.71;43.76;99302.83;1782656;80;21041;-43
2022/05/03 00:50:00;;;;;;;3.87;2.52;;;;;;;12.69;43.84;99305.92;1782434;80;21142;-44
2022/05/03 00:52:49;;;;;;;6.03;2.58;;;;;;;12.71;44.29;99315.08;1782620;80;20992;-43
2022/05/03 00:55:56;;;;;;;5.97;2.87;;;;;;;12.72;44.72;99295.67;1782952;80;21001;-43
2022/05/03 00:58:40;;;;;;;4.75;2.90;;;;;;;12.73;44.80;99300.53;1782669;80;20994;-43
2022/05/03 01:01:48;;;;;;;5.00;2.85;;;;;;;12.72;44.61;99298.96;1782577;80;21056;-43
2022/05/03 01:04:50;;;;;;;5.53;2.75;;;;;;;12.71;45.04;99296.03;1782492;80;22297;-43
2022/05/03 01:07:36;;;;;;;5.03;2.98;;;;;;;12.72;44.71;99296.24;1782343;80;21479;-43
2022/05/03 01:10:27;;;;;;;5.95;3.00;;;;;;;12.69;44.39;99296.40;1782436;80;20989;-43
2022/05/03 01:13:05;;;;;;;5.95;2.95;;;;;;;12.70;44.61;99302.05;1782579;80;21028;-43
2022/05/03 01:15:41;;;;;;;5.97;2.80;;;;;;;12.69;45.17;99308.64;1782659;80;22120;-43
2022/05/03 01:18:23;;;;;;;8.03;2.95;;;;;;;12.66;45.77;99309.39;1782663;80;21147;-43
2022/05/03 01:21:18;;;;;;;5.85;3.27;;;;;;;12.61;46.35;99308.37;1782594;80;20993;-43
2022/05/03 01:23:55;;;;;;;5.60;3.22;;;;;;;12.60;46.55;99308.95;1782620;80;20997;-44
2022/05/03 01:26:46;;;;;;;6.30;3.20;;;;;;;12.60;46.19;99301.37;1772393;80;21354;-44
2022/05/03 01:29:36;;;;;;;6.87;2.95;;;;;;;12.62;46.85;99300.42;1782937;80;21006;-44
2022/05/03 01:32:08;;;;;;;4.87;2.90;;;;;;;12.62;46.38;99293.05;1782922;80;21111;-44
2022/05/03 01:34:37;;;;;;;6.12;3.27;;;;;;;12.58;45.84;99293.60;1783106;80;20938;-44
2022/05/03 01:37:33;;;;;;;5.10;3.05;;;;;;;12.54;45.80;99298.20;1782568;80;20992;-44
2022/05/03 01:40:06;;;;;;;6.62;3.58;;;;;;;12.52;46.22;99291.59;1782445;80;21010;-44
2022/05/03 01:42:51;;;;;;;4.75;2.85;;;;;;;12.51;46.61;99289.44;1715346;83;21542;-44
2022/05/03 01:45:40;;;;;;;5.83;3.22;;;;;;;12.51;46.52;99294.09;1717229;83;21153;-44
2022/05/03 01:51:51;;;;;;;5.53;3.05;;;;;;;12.46;46.44;99291.14;1719519;83;20976;-45
2022/05/03 01:54:29;;;;;;;5.62;3.25;;;;;;;12.45;46.51;99290.14;1720188;83;21014;-44
2022/05/03 01:57:08;;;;;;;5.42;3.10;;;;;;;12.43;46.63;99289.17;1718846;83;21060;-45
2022/05/03 01:59:42;;;;;;;7.65;3.22;;;;;;;12.45;46.95;99290.14;1721293;83;20973;-44
2022/05/03 02:02:31;;;;;;;5.97;3.70;;;;;;;12.45;46.89;99280.05;1719282;83;21033;-45
2022/05/03 02:05:06;;;;;;;8.28;3.62;;;;;;;12.45;47.12;99274.61;1719155;83;21555;-44
2022/05/03 02:07:56;;;;;;;4.85;3.37;;;;;;;12.45;47.45;99269.75;1774660;80;21444;-44
2022/05/03 02:10:40;;;;;;;4.80;3.08;;;;;;;12.46;47.24;99274.03;1774266;80;20991;-44
2022/05/03 02:16:49;;;;;;;7.55;3.45;;;;;;;12.42;47.49;99268.58;1774374;80;21008;-45
2022/05/03 02:19:33;;;;;;;4.08;3.25;;;;;;;12.39;48.42;99284.86;1768581;80;20965;-44
2022/05/03 02:22:32;;;;;;;7.25;3.65;;;;;;;12.35;47.94;99279.94;1743396;82;21606;-45
2022/05/03 02:25:12;;;;;;;7.90;3.00;;;;;;;12.26;48.09;99274.80;1743566;82;21012;-45
2022/05/03 02:28:03;;;;;;;6.70;3.10;;;;;;;12.20;48.50;99280.36;1743689;82;21861;-45
2022/05/03 02:30:32;;;;;;;6.28;3.27;;;;;;;12.16;48.80;99265.95;1741927;82;21076;-45
2022/05/03 02:33:40;;;;;;;9.03;3.50;;;;;;;12.13;49.19;99260.70;1743241;82;21032;-45
2022/05/03 02:36:08;;;;;;;4.37;2.92;;;;;;;12.12;49.30;99250.19;1742945;82;21552;-45
2022/05/03 02:38:37;;;;;;;3.98;2.83;;;;;;;12.12;49.65;99243.40;1743290;82;21018;-45
2022/05/03 02:41:04;;;;;;;4.28;2.87;;;;;;;12.18;48.83;99245.42;1743353;82;21577;-45
2022/05/03 02:43:31;;;;;;;4.85;2.70;;;;;;;12.31;49.77;99258.73;1743515;82;21496;-45
2022/05/03 02:46:39;;;;;;;6.22;3.00;;;;;;;12.36;50.42;99261.90;1743396;82;21013;-45
2022/05/03 02:49:22;;;;;;;9.15;3.02;;;;;;;12.38;49.26;99265.04;1743563;82;20977;-43
2022/05/03 02:52:40;;;;;;;6.03;2.90;;;;;;;12.34;48.15;99260.16;1677448;84;21053;-44
2022/05/03 02:55:30;;;;;;;6.58;2.75;;;;;;;12.31;47.99;99251.94;1702695;84;23128;-45
2022/05/03 02:58:06;;;;;;;;;;;;;;;12.25;47.62;99259.64;1710040;84;21814;-45
2022/05/03 03:04:06;;;;;;;4.42;2.98;;;;;;;12.10;47.85;99262.78;1695903;84;20911;-45
2022/05/03 03:06:37;;;;;;;6.12;3.40;;;;;;;12.07;47.26;99266.83;1695999;84;21014;-45
2022/05/03 03:09:04;;;;;;;8.83;3.20;;;;;;;12.01;47.09;99265.02;1678025;84;21263;-45
2022/05/03 03:11:52;;;;;;;5.78;3.40;;;;;;;11.96;47.06;99266.70;1695745;84;21521;-45
2022/05/03 03:14:30;;;;;;;5.17;2.98;;;;;;;11.95;47.04;99265.73;1695691;84;21054;-45
2022/05/03 03:17:07;;;;;;;4.85;3.00;;;;;;;11.91;46.95;99258.12;1695750;84;21030;-45
2022/05/03 03:20:04;;;;;;;8.18;3.35;;;;;;;11.93;47.17;99261.23;1695772;84;21085;-45
2022/05/03 03:22:40;;;;;;;4.67;3.20;;;;;;;11.94;48.14;99262.23;1696250;84;21206;-45
2022/05/03 03:25:09;;;;;;;6.62;3.15;;;;;;;11.94;48.72;99275.81;1695632;84;20966;-45
2022/05/03 03:27:36;;;;;;;7.85;3.22;;;;;;;11.92;48.55;99271.89;1696065;84;21001;-44
2022/05/03 03:30:06;;;;;;;4.87;2.95;;;;;;;11.92;48.39;99272.67;1695846;84;20919;-43
2022/05/03 03:32:37;;;;;;;4.72;3.12;;;;;;;11.94;48.18;99272.31;1696123;84;21062;-44
2022/05/03 03:35:05;;;;;;;7.65;3.58;;;;;;;11.95;47.97;99278.75;1677957;84;21308;-43
2022/05/03 03:37:36;;;;;;;7.75;3.65;;;;;;;11.92;48.11;99281.40;1696117;84;20970;-43
2022/05/03 03:40:04;;;;;;;3.35;2.70;;;;;;;11.92;48.31;99279.47;1695739;84;21006;-44
2022/05/03 03:42:32;;;;;;;7.60;3.22;;;;;;;11.93;48.40;99276.17;1678186;84;21037;-43
2022/05/03 03:45:01;;;;;;;6.53;3.30;;;;;;;11.90;48.55;99266.84;1695914;84;21097;-44
2022/05/03 03:47:30;;;;;;;;;;;;;;;11.89;48.54;99267.20;1698429;84;21262;-44
2022/05/03 03:49:58;;;;;;;6.03;3.42;;;;;;;11.92;48.72;99267.81;1678114;85;20476;-44
2022/05/03 03:52:25;;;;;;;6.08;3.42;;;;;;;11.87;48.59;99268.14;1743662;82;20998;-45
2022/05/03 03:54:54;;;;;;;4.72;3.33;;;;;;;11.95;48.40;99262.45;1738525;82;21001;-45
2022/05/03 03:57:21;;;;;;;5.83;3.30;;;;;;;12.05;48.44;99269.91;1743566;82;21456;-45
2022/05/03 03:59:48;;;;;;;5.60;3.60;;;;;;;12.15;48.44;99265.77;1743536;82;21238;-45
2022/05/03 04:02:15;;;;;;;5.47;3.55;;;;;;;12.24;48.18;99264.11;1707801;84;20950;-45
2022/05/03 04:04:44;;;;;;;7.22;3.25;;;;;;;12.34;48.28;99269.66;1743594;82;21858;-45
2022/05/03 04:07:11;;;;;;;8.45;3.33;;;;;;;12.45;48.91;99274.61;1743359;82;20905;-45
2022/05/03 04:09:37;;;;;;;8.90;3.60;;;;;;;12.55;49.07;99271.22;1707924;84;21108;-45
2022/05/03 04:12:06;;;;;;;5.70;3.27;;;;;;;12.64;48.79;99271.69;1707720;84;21152;-45
2022/05/03 04:14:34;;;;;;;7.62;3.70;;;;;;;12.74;48.68;99273.52;1744065;82;21016;-45
2022/05/03 04:17:00;;;;;;;5.85;3.00;;;;;;;12.83;48.05;99271.28;1743187;82;21495;-45
2022/05/03 04:19:27;;;;;;;5.17;3.05;;;;;;;12.91;47.61;99274.25;1743380;82;21574;-45
2022/05/03 04:21:54;;;;;;;5.50;3.15;;;;;;;12.99;47.27;99279.37;1743363;82;21033;-45
2022/05/03 04:24:20;;;;;;;4.15;2.98;;;;;;;13.05;47.02;99281.95;1743402;82;21132;-45
2022/05/03 04:26:47;;;;;;;5.53;2.72;;;;;;;13.13;47.26;99275.21;1743309;82;20996;-44
2022/05/03 04:29:14;;;;;;;7.22;3.33;;;;;;;13.20;47.32;99282.08;1743326;82;21020;-45
2022/05/03 04:31:43;;;;;;;4.75;3.25;;;;;;;13.26;47.01;99280.00;1743321;82;20996;-45
2022/05/03 04:34:10;;;;;;;4.95;3.42;;;;;;;13.31;46.41;99281.58;1743292;82;21096;-45
2022/05/03 04:36:39;;;;;;;4.85;2.83;;;;;;;13.31;46.26;99286.42;1743390;82;21594;-45
2022/05/03 04:39:05;;;;;;;5.47;3.25;;;;;;;13.32;45.99;99283.91;1743162;82;21520;-45
2022/05/03 04:41:32;;;;;;;5.92;4.08;;;;;;;13.31;45.63;99286.42;1743343;82;21033;-45
2022/05/03 04:44:00;;;;;;;6.80;3.85;;;;;;;13.29;45.57;99284.67;1743205;82;21032;-45
2022/05/03 04:46:26;;;;;;;6.33;3.50;;;;;;;13.27;45.77;99281.54;1743417;82;21088;-45
2022/05/03 04:48:53;;;;;;;6.40;3.40;;;;;;;13.27;46.05;99282.11;1707663;84;21258;-45
2022/05/03 04:51:24;;;;;;;3.58;3.00;;;;;;;13.27;46.14;99288.34;1707420;84;21059;-45
2022/05/03 04:53:51;;;;;;;7.70;3.15;;;;;;;13.28;47.00;99285.05;1743448;82;20976;-45
2022/05/03 04:56:20;;;;;;;6.83;3.92;;;;;;;13.30;46.54;99286.82;1707524;84;21646;-45
2022/05/03 04:58:48;;;;;;;8.85;3.60;;;;;;;13.32;46.63;99281.19;1707846;84;21054;-45
2022/05/03 05:01:15;;;;;;;6.78;3.25;;;;;;;13.33;46.73;99288.20;1707753;84;21798;-45
2022/05/03 05:03:43;;;;;;;6.03;3.72;;;;;;;13.37;46.43;99290.36;1773060;80;21577;-45
2022/05/03 05:06:10;;;;;;;6.53;3.67;;;;;;;13.42;46.38;99286.50;1773973;80;20969;-45
2022/05/03 05:08:38;;;;;;;5.55;3.70;;;;;;;13.47;45.97;99284.78;1774190;80;21010;-45
2022/05/03 05:11:05;;;;;;;5.05;3.15;;;;;;;13.53;45.97;99285.20;1774168;80;21033;-45
2022/05/03 05:13:33;;;;;;;4.12;3.17;;;;;;;13.60;45.87;99285.25;1774187;80;23152;-45
2022/05/03 05:15:59;;;;;;;6.55;3.22;;;;;;;13.68;45.51;99284.13;1774213;80;20906;-45
2022/05/03 05:18:27;;;;;;;5.87;2.92;;;;;;;13.73;44.44;99283.18;1774300;80;20926;-45
2022/05/03 05:21:35;;;;;;;5.12;2.72;;;;;;;13.84;43.35;99278.57;1774658;79;22328;-43
2022/05/03 05:24:02;;;;;;;6.12;3.30;;;;;;;13.90;43.33;99277.59;1746544;82;20974;-44
2022/05/03 05:26:29;;;;;;;5.28;3.10;;;;;;;13.99;43.48;99277.27;1746509;82;21233;-44
2022/05/03 05:28:57;;;;;;;5.60;3.08;;;;;;;14.08;43.50;99274.38;1746567;82;20967;-44
2022/05/03 05:31:23;;;;;;;4.80;3.15;;;;;;;14.16;43.71;99270.50;1746355;82;21030;-44
2022/05/03 05:33:50;;;;;;;6.25;3.62;;;;;;;14.24;43.81;99282.97;1746442;82;20974;-44
2022/05/03 05:36:17;;;;;;;5.03;3.00;;;;;;;14.33;43.75;99275.78;1746281;82;20978;-44
2022/05/03 05:38:44;;;;;;;7.22;3.22;;;;;;;14.42;43.84;99277.61;1746452;82;21258;-44
2022/05/03 05:41:13;;;;;;;4.33;3.15;;;;;;;14.51;44.01;99279.38;1746339;82;20986;-44
2022/05/03 05:43:41;;;;;;;3.52;2.22;;;;;;;14.60;43.91;99279.00;1746628;82;20971;-44
2022/05/03 05:46:09;;;;;;;5.55;3.02;;;;;;;14.67;44.07;99279.77;1746413;82;21029;-44
2022/05/03 05:48:39;;;;;;;5.60;3.45;;;;;;;14.75;43.92;99277.84;1746536;82;21563;-44
2022/05/03 05:51:05;;;;;;;9.10;3.53;;;;;;;14.80;43.69;99280.19;1746560;82;21385;-44
2022/05/03 05:53:33;;;;;;;4.85;3.30;;;;;;;14.82;43.41;99277.05;1743483;82;21022;-44
2022/05/03 05:56:01;;;;;;;4.58;3.30;;;;;;;14.82;43.57;99273.74;1716545;83;21071;-44
2022/05/03 05:58:28;;;;;;;6.17;2.98;;;;;;;14.85;43.59;99277.08;1716760;83;21082;-44
2022/05/03 06:00:56;;;;;;;6.70;3.10;;;;;;;14.91;43.88;99263.21;1716747;83;21038;-44
2022/05/03 06:03:24;;;;;;;4.33;3.35;;;;;;;14.98;43.93;99265.95;1716630;83;21259;-44
2022/05/03 06:05:51;;;;;;;6.50;3.25;;;;;;;15.07;43.98;99266.33;1716867;83;20978;-44
2022/05/03 06:08:18;;;;;;;4.72;2.50;;;;;;;15.16;43.49;99261.83;1716853;83;21050;-44
2022/05/03 06:10:45;;;;;;;4.87;3.08;;;;;;;15.27;43.33;99261.82;1711882;83;21069;-43
2022/05/03 06:13:13;;;;;;;5.35;2.85;;;;;;;15.36;42.20;99262.19;1753793;81;21042;-43
2022/05/03 06:15:40;;;;;;;4.30;2.77;;;;;;;15.44;42.44;99266.48;1757289;81;21247;-44
2022/05/03 06:18:08;;;;;;;4.33;2.70;;;;;;;15.54;41.88;99261.61;1757336;81;20990;-44
2022/05/03 06:20:36;;;;;;;6.78;2.85;;;;;;;15.63;41.85;99266.08;1757363;81;22007;-44
2022/05/03 06:23:04;;;;;;;6.05;2.67;;;;;;;15.76;41.41;99261.73;1757320;81;21025;-44
2022/05/03 06:25:31;;;;;;;4.90;2.70;;;;;;;15.91;40.68;99263.23;1757290;81;21264;-44
2022/05/03 06:27:58;;;;;;;7.87;3.20;;;;;;;16.03;40.29;99270.98;1757225;81;23138;-44
2022/05/03 06:30:25;;;;;;;4.08;2.77;;;;;;;16.10;39.21;99267.44;1757211;81;21029;-44
2022/05/03 06:32:52;;;;;;;6.62;2.90;;;;;;;16.21;39.55;99270.13;1756785;81;20974;-44
2022/05/03 06:35:19;;;;;;;4.87;2.75;;;;;;;16.30;39.68;99254.83;1756847;81;21002;-44
2022/05/03 06:37:46;;;;;;;6.72;2.75;;;;;;;16.39;39.63;99258.48;1756984;81;21591;-44
2022/05/03 06:40:13;;;;;;;5.03;2.85;;;;;;;16.51;39.60;99263.48;1752196;81;21130;-44
2022/05/03 06:42:42;;;;;;;7.17;2.83;;;;;;;16.60;38.27;99265.23;1756656;81;21556;-44
2022/05/03 06:45:10;;;;;;;7.42;3.02;;;;;;;16.64;38.25;99261.87;1757036;81;20986;-44
2022/05/03 06:47:39;;;;;;;;;;;;;;;16.66;37.89;99260.86;1759503;81;20995;-44
2022/05/03 06:50:08;;;;;;;3.25;2.52;;;;;;;16.67;38.32;99263.80;1756899;81;20504;-44
2022/05/03 06:52:35;;;;;;;5.10;2.70;;;;;;;16.65;38.28;99265.39;1757391;81;21253;-44
2022/05/03 06:55:03;;;;;;;3.80;2.42;;;;;;;16.71;37.38;99261.80;1756652;81;21463;-44
2022/05/03 06:57:30;;;;;;;4.55;2.70;;;;;;;16.77;37.59;99263.52;1757385;81;20970;-44
2022/05/03 07:00:01;;;;;;;5.60;2.67;;;;;;;16.88;37.88;99270.48;1757048;81;22137;-43
2022/05/03 07:02:30;;;;;;;5.73;2.63;;;;;;;17.15;37.77;99264.38;1757471;81;21019;-44
2022/05/03 07:04:59;;;;;;;4.17;2.95;;;;;;;17.15;37.77;99264.38;1756853;81;21397;-44
2022/05/03 07:07:27;;;;;;;4.15;2.58;;;;;;;17.34;37.12;99265.16;1756864;81;21503;-44
2022/05/03 07:09:55;;;;;;;5.05;2.90;;;;;;;17.49;37.25;99271.28;1756958;81;21018;-44
2022/05/03 07:12:21;;;;;;;4.33;2.47;;;;;;;17.61;36.57;99267.47;1757044;81;20981;-44
2022/05/03 07:14:48;;;;;;;3.35;2.70;;;;;;;17.72;36.01;99262.63;1756883;81;21097;-44
2022/05/03 07:22:45;;;;;;;3.90;2.67;;;;;;;17.82;35.75;99269.17;1756666;81;21306;-44
2022/05/03 07:22:46;;;;;;;3.45;2.45;;;;;;;17.92;36.31;99264.75;1756777;81;21014;-44
2022/05/03 07:25:17;;;;;;;6.75;2.42;;;;;;;17.91;35.89;99265.34;1756962;81;21555;-44
2022/05/03 07:27:45;;;;;;;7.05;2.58;;;;;;;17.84;36.00;99266.03;1756862;81;21022;-44
2022/05/03 07:30:16;;;;;;;3.60;2.30;;;;;;;17.80;35.87;99257.85;1756821;81;21232;-44
2022/05/03 07:32:43;;;;;;;3.90;2.17;;;;;;;17.76;36.47;99263.39;1756746;81;21033;-44
2022/05/03 07:35:10;;;;;;;4.40;2.75;;;;;;;17.78;36.51;99262.37;1756778;81;20935;-43
2022/05/03 07:37:39;;;;;;;6.17;3.20;;;;;;;17.79;36.20;99257.08;1756881;81;21014;-44
2022/05/03 07:40:08;;;;;;;4.33;2.47;;;;;;;17.84;35.95;99259.17;1756891;81;21090;-44
2022/05/03 07:42:34;;;;;;;6.33;2.72;;;;;;;17.90;36.64;99257.54;1756905;81;21708;-43
2022/05/03 07:45:01;;;;;;;5.15;1.95;;;;;;;18.05;35.63;99256.17;1756677;81;20987;-43
2022/05/03 07:47:28;;;;;;;4.78;2.20;;;;;;;18.23;34.20;99258.08;1756780;81;21030;-42
2022/05/03 07:49:55;;;;;;;3.80;2.40;;;;;;;18.40;34.39;99250.18;1756885;81;20962;-44
2022/05/03 07:52:21;;;;;;;2.98;2.10;;;;;;;18.58;34.83;99245.25;1757067;81;21101;-44
2022/05/03 07:54:48;;;;;;;3.25;2.33;;;;;;;18.82;33.92;99241.15;1756857;81;21239;-44
2022/05/03 07:57:15;;;;;;;3.50;2.10;;;;;;;19.04;33.53;99240.36;1756819;81;21062;-44
2022/05/03 07:59:42;;;;;;;6.58;2.10;;;;;;;19.22;32.52;99235.92;1756884;81;21005;-44
2022/05/03 08:02:09;;;;;;;5.90;2.15;;;;;;;19.41;32.87;99234.42;1757033;81;21042;-44
2022/05/03 08:04:36;;;;;;;4.92;2.22;;;;;;;19.58;32.68;99223.70;1757072;81;21535;-44
2022/05/03 08:07:03;;;;;;;4.50;2.20;;;;;;;19.77;32.29;99233.92;1756883;81;21545;-44
2022/05/03 08:09:30;;;;;;;3.83;2.05;;;;;;;19.95;30.90;99226.06;1757134;81;21508;-44
2022/05/03 08:11:57;;;;;;;5.40;2.50;;;;;;;20.03;30.19;99226.70;1756999;81;20939;-44
2022/05/03 08:14:24;;;;;;;5.35;2.17;;;;;;;20.14;30.58;99227.23;1756960;81;21029;-44
2022/05/03 08:16:50;;;;;;;2.80;1.98;;;;;;;20.27;29.44;99222.63;1756962;81;21062;-44
2022/05/03 08:19:17;;;;;;;3.40;1.98;;;;;;;20.38;29.37;99220.41;1756754;81;21331;-44
2022/05/03 08:21:44;;;;;;;5.37;2.50;;;;;;;20.47;28.70;99219.06;1751632;81;21041;-44
2022/05/03 08:24:10;;;;;;;4.83;2.05;;;;;;;20.53;29.09;99233.85;1756677;81;20977;-44
2022/05/03 08:26:37;;;;;;;3.52;2.12;;;;;;;20.61;28.86;99222.86;1756718;81;20954;-44
2022/05/03 08:29:04;;;;;;;5.33;2.40;;;;;;;20.65;27.90;99213.30;1756718;81;21089;-44
2022/05/03 08:31:31;;;;;;;3.77;2.00;;;;;;;20.63;28.27;99210.19;1756850;81;21734;-44
2022/05/03 08:34:01;;;;;;;6.45;1.98;;;;;;;20.65;28.62;99208.39;1756758;81;21287;-44
2022/05/03 08:36:26;;;;;;;4.78;1.98;;;;;;;20.74;28.37;99205.80;1756184;81;21013;-44
2022/05/03 08:44:15;;;;;;;3.42;2.10;;;;;;;21.16;27.78;99195.09;1756632;81;21088;-44
2022/05/03 08:46:42;;;;;;;5.55;2.00;;;;;;;21.24;26.88;99194.31;1756736;81;21013;-44
2022/05/03 08:49:17;;;;;;;4.25;2.17;;;;;;;21.19;26.97;99181.05;1756717;81;20938;-44
2022/05/03 08:51:44;;;;;;;3.80;2.05;;;;;;;21.18;27.34;99189.14;1756831;81;20970;-43
2022/05/03 08:54:11;;;;;;;3.22;1.95;;;;;;;21.23;26.98;99181.12;1756722;81;20987;-43
2022/05/03 08:56:38;;;;;;;8.30;2.42;;;;;;;21.39;27.36;99185.82;1756751;81;21342;-44
2022/05/03 08:59:04;;;;;;;4.80;2.08;;;;;;;21.50;27.18;99177.22;1756558;81;21579;-43
2022/05/03 09:01:31;;;;;;;6.28;2.45;;;;;;;21.55;26.58;99168.41;1756694;81;21540;-43
2022/05/03 09:03:58;;;;;;;3.75;2.22;;;;;;;21.54;26.51;99183.44;1756683;81;21033;-44
2022/05/03 09:06:47;;;;;;;3.17;1.75;;;;;;;21.53;26.73;99176.37;1756774;81;21572;-43
2022/05/03 09:09:16;;;;;;;4.05;1.80;;;;;;;21.60;26.58;99173.39;1733929;81;21239;-43
2022/05/03 09:11:46;;;;;;;3.42;2.58;;;;;;;21.60;26.58;99173.39;1756727;81;21025;-43
2022/05/03 09:14:16;;;;;;;4.00;2.40;;;;;;;21.71;25.80;99173.86;1755826;81;20902;-43
2022/05/03 09:16:50;;;;;;;5.97;2.12;;;;;;;21.78;26.31;99166.77;1754545;81;21020;-44
2022/05/03 09:19:24;;;;;;;5.58;2.70;;;;;;;21.88;27.15;99162.89;1756837;81;21036;-44
2022/05/03 09:24:57;;;;;;;5.37;2.45;;;;;;;22.15;25.72;99158.97;1751840;81;20926;-44
2022/05/03 09:27:26;;;;;;;5.45;2.55;;;;;;;22.10;25.55;99148.65;1751640;82;21084;-44
2022/05/03 09:30:08;;;;;;;3.15;2.33;;;;;;;22.04;25.59;99147.64;1752078;82;21044;-44
2022/05/03 09:32:43;;;;;;;5.50;2.52;;;;;;;22.06;25.88;99150.75;1751535;81;20994;-44
2022/05/03 09:35:33;;;;;;;6.87;2.50;;;;;;;21.96;26.27;99144.95;1751724;81;21105;-44
2022/05/03 09:38:04;;;;;;;4.33;2.30;;;;;;;21.87;26.17;99142.65;1751542;82;20968;-44
2022/05/03 09:40:43;;;;;;;6.25;2.52;;;;;;;21.88;26.17;99135.92;1751696;82;20945;-45
2022/05/03 09:43:10;;;;;;;6.00;2.17;;;;;;;21.98;25.74;99126.55;1751519;82;21024;-44
2022/05/03 09:45:37;;;;;;;3.27;2.10;;;;;;;22.11;26.66;99125.95;1751694;82;21566;-45
2022/05/03 09:48:05;;;;;;;4.70;2.42;;;;;;;22.30;26.32;99125.55;1751556;81;21217;-44
2022/05/03 09:50:46;;;;;;;4.00;2.25;;;;;;;22.44;25.06;99123.70;1751858;81;21263;-44
2022/05/03 09:53:21;;;;;;;4.67;2.25;;;;;;;22.49;25.22;99125.30;1751546;82;20941;-44
2022/05/03 09:55:48;;;;;;;6.50;2.70;;;;;;;22.47;24.95;99111.75;1751875;82;20973;-44
2022/05/03 09:58:19;;;;;;;4.15;2.30;;;;;;;22.52;24.97;99121.62;1751593;81;22164;-44
2022/05/03 10:00:48;;;;;;;3.85;2.50;;;;;;;22.58;24.92;99112.17;1751702;82;21226;-44
2022/05/03 10:03:15;;;;;;;4.85;2.00;;;;;;;22.59;25.26;99112.34;1751746;82;21511;-44
2022/05/03 10:05:45;;;;;;;4.87;2.25;;;;;;;22.58;25.14;99110.79;1751687;81;21068;-45
2022/05/03 10:08:17;;;;;;;5.85;2.50;;;;;;;22.68;24.95;99106.12;1751695;82;21060;-45
2022/05/03 10:10:43;;;;;;;3.58;2.10;;;;;;;22.79;24.72;99104.58;1751414;82;21009;-45
2022/05/03 10:13:13;;;;;;;3.50;2.52;;;;;;;22.77;24.02;99096.55;1746387;82;21255;-42
2022/05/03 10:21:28;;;;;;;3.85;2.40;;;;;;;22.52;24.70;99094.61;1751717;82;21025;-43
2022/05/03 10:24:11;;;;;;;2.90;2.20;;;;;;;;;;1751756;82;21060;-43
2022/05/03 10:27:02;;;;;;;3.55;2.40;;;;;;;22.78;24.28;99093.35;1752056;82;21093;-43
2022/05/03 10:29:36;;;;;;;3.80;2.37;;;;;;;22.88;24.27;99074.84;1752266;81;20953;-44
2022/05/03 10:32:11;;;;;;;4.67;2.70;;;;;;;22.88;24.50;99068.71;1751508;82;21057;-44
2022/05/03 10:34:53;;;;;;;3.40;2.22;;;;;;;22.86;24.81;99071.14;1746598;82;21513;-43
2022/05/03 10:37:33;;;;;;;2.98;2.20;;;;;;;22.93;24.18;99064.59;1751983;81;21013;-43
2022/05/03 10:40:07;;;;;;;4.05;2.17;;;;;;;23.08;23.88;99067.62;1739468;82;21247;-43
2022/05/03 10:42:35;;;;;;;5.37;2.65;;;;;;;23.27;24.13;99062.36;1751386;82;21007;-43
2022/05/03 10:45:11;;;;;;;5.40;2.55;;;;;;;23.47;22.91;99061.43;1751368;82;21031;-43
2022/05/03 10:47:53;;;;;;;4.60;2.25;;;;;;;23.55;23.07;99057.16;1751364;82;22149;-44
2022/05/03 10:50:34;;;;;;;3.60;2.10;;;;;;;23.63;23.27;99053.48;1751243;81;21525;-44
2022/05/03 10:53:07;;;;;;;2.37;2.00;;;;;;;23.75;22.95;99039.56;1751341;82;21578;-44
2022/05/03 10:55:40;;;;;;;3.10;2.35;;;;;;;23.78;22.57;99041.41;1751025;82;20925;-44
2022/05/03 10:58:26;;;;;;;3.42;2.37;;;;;;;23.57;22.89;99047.02;1748207;82;21012;-44
2022/05/03 11:01:20;;;;;;;2.75;2.17;;;;;;;23.34;23.03;99048.25;1751375;82;21017;-44
2022/05/03 11:03:59;;;;;;;4.85;2.33;;;;;;;23.20;23.64;99028.04;1751415;82;21522;-44
2022/05/03 11:06:32;;;;;;;3.72;1.95;;;;;;;23.20;24.25;99040.48;1751169;82;23159;-44
2022/05/03 11:11:44;;;;;;;6.20;1.90;;;;;;;23.54;23.93;99024.39;1751161;82;21016;-44
2022/05/03 11:14:24;;;;;;;4.33;2.17;;;;;;;23.62;23.48;99038.91;1729665;82;21002;-44
2022/05/03 11:17:04;;;;;;;5.30;1.95;;;;;;;23.61;23.07;99030.44;1684284;85;21537;-45
2022/05/03 11:19:48;;;;;;;6.55;2.10;;;;;;;23.50;23.43;99017.63;1680025;85;21154;-45
2022/05/03 11:22:18;;;;;;;2.55;1.98;;;;;;;23.56;24.04;99024.72;1693317;82;21083;-44
2022/05/03 11:24:47;;;;;;;3.33;1.90;;;;;;;23.70;22.63;99016.63;1707413;84;20970;-44
2022/05/03 11:27:15;;;;;;;2.62;1.70;;;;;;;23.86;22.90;99013.45;1707474;84;21506;-44
2022/05/03 11:29:47;;;;;;;3.50;1.80;;;;;;;24.13;22.22;99005.19;1707378;84;21005;-44
2022/05/03 11:32:16;;;;;;;4.95;1.85;;;;;;;24.44;21.19;99002.33;1707455;84;21856;-43
2022/05/03 11:34:43;;;;;;;4.30;2.05;;;;;;;24.81;20.43;99001.69;1707173;84;21032;-44
2022/05/03 11:37:10;;;;;;;4.08;1.98;;;;;;;25.21;20.76;99000.86;1707141;84;21005;-44
2022/05/03 11:39:37;;;;;;;5.60;1.90;;;;;;;25.41;20.31;98997.56;1707267;84;21597;-43
2022/05/03 11:42:08;;;;;;;3.55;1.92;;;;;;;25.45;20.31;98993.38;1707330;84;21033;-44
2022/05/03 11:44:35;;;;;;;3.65;1.90;;;;;;;25.30;19.35;99003.61;1707579;84;21807;-44
2022/05/03 11:47:03;;;;;;;4.58;1.70;;;;;;;24.93;19.55;98996.63;1707414;84;21038;-43
2022/05/03 11:49:32;;;;;;;2.77;1.65;;;;;;;24.54;20.18;98994.95;1707580;84;21009;-44
2022/05/03 11:57:40;;;;;;;2.60;2.00;;;;;;;23.64;22.04;98990.77;1707464;84;21270;-44
2022/05/03 12:00:11;;;;;;;3.00;2.00;;;;;;;23.33;21.99;98995.55;1707246;84;21033;-44
2022/05/03 12:02:41;;;;;;;3.27;2.10;;;;;;;23.01;22.15;98989.06;1707659;84;21025;-43
2022/05/03 12:05:18;;;;;;;3.05;2.00;;;;;;;22.70;22.43;98992.58;1707236;84;21537;-44
2022/05/03 12:07:50;;;;;;;2.40;1.90;;;;;;;22.45;22.73;98989.89;1707484;84;21080;-44
2022/05/03 12:10:37;;;;;;;5.22;2.30;;;;;;;22.20;23.44;98994.89;1707238;84;21124;-44
2022/05/03 12:13:15;;;;;;;5.50;2.20;;;;;;;21.95;23.40;98998.48;1707309;83;21720;-45
2022/05/03 12:15:45;;;;;;;4.92;2.77;;;;;;;21.72;24.03;99009.09;1707299;84;21014;-44
2022/05/03 12:18:23;;;;;;;4.42;3.40;;;;;;;21.52;25.07;99034.91;1707322;84;21013;-45
2022/05/03 12:21:04;;;;;;;7.00;3.37;;;;;;;21.37;27.90;99026.13;1706181;83;21089;-45
2022/05/03 12:23:39;;;;;;;4.78;3.45;;;;;;;21.13;28.74;99034.70;1707233;83;21116;-44
2022/05/03 12:26:20;;;;;;;4.67;3.22;;;;;;;20.78;30.63;99031.53;1707153;84;21088;-44
2022/05/03 12:28:58;;;;;;;7.05;2.98;;;;;;;20.44;31.22;99032.66;1707379;84;21520;-45
2022/05/03 12:31:36;;;;;;;5.12;3.02;;;;;;;20.22;32.57;99043.43;1707050;84;21089;-44
2022/05/03 12:34:07;;;;;;;6.65;3.02;;;;;;;20.09;33.64;99034.33;1707075;84;21084;-44
2022/05/03 12:36:44;;;;;;;5.15;3.00;;;;;;;20.03;34.14;99038.20;1707124;84;21129;-44
2022/05/03 12:39:18;;;;;;;5.22;2.90;;;;;;;20.08;34.50;99029.42;1707331;84;21022;-44